createdAt,value
2016-12-24T00:01:08.309Z,60.86
2016-12-24T00:02:18.534Z,61.12
2016-12-24T00:03:29.115Z,60.64
2016-12-24T00:04:40.073Z,60.64
2016-12-24T00:05:50.638Z,60.83
2016-12-24T00:07:04.235Z,61.12
2016-12-24T00:08:14.796Z,61.22
2016-12-24T00:09:25.701Z,61.41
2016-12-24T00:10:36.311Z,61.41
2016-12-24T00:11:47.220Z,61.41
2016-12-24T00:12:58.129Z,61.22
2016-12-24T00:14:08.694Z,61.02
2016-12-24T00:15:19.256Z,60.93
2016-12-24T00:16:30.309Z,61.6
2016-12-24T00:17:41.218Z,61.69
2016-12-24T00:18:52.124Z,61.51
2016-12-24T00:20:03.037Z,61.69
2016-12-24T00:21:13.606Z,61.31
2016-12-24T00:22:24.215Z,61.41
2016-12-24T00:23:34.780Z,61.31
2016-12-24T00:24:45.345Z,61.51
2016-12-24T00:25:56.255Z,61.31
2016-12-24T00:27:06.820Z,61.31
2016-12-24T00:28:17.789Z,61.22
2016-12-24T00:29:28.358Z,61.31
2016-12-24T00:30:38.943Z,61.31
2016-12-24T00:31:49.504Z,61.91
2016-12-24T00:33:00.407Z,61.31
2016-12-24T00:34:10.675Z,61.31
2016-12-24T00:35:21.584Z,61.6
2016-12-24T00:36:32.161Z,61.31
2016-12-24T00:37:42.730Z,61.41
2016-12-24T00:38:52.939Z,61.41
2016-12-24T00:40:03.889Z,61.31
2016-12-24T00:41:14.458Z,61.51
2016-12-24T00:42:25.363Z,61.12
2016-12-24T00:43:36.268Z,61.79
2016-12-24T00:44:47.181Z,61.41
2016-12-24T00:45:57.795Z,61.69
2016-12-24T00:47:08.016Z,61.98
2016-12-24T00:48:18.933Z,61.51
2016-12-24T00:49:29.842Z,61.51
2016-12-24T00:50:40.748Z,61.88
2016-12-24T00:51:51.360Z,61.98
2016-12-24T00:53:01.930Z,61.6
2016-12-24T00:54:12.843Z,61.79
2016-12-24T00:55:23.404Z,61.41
2016-12-24T00:56:33.977Z,61.79
2016-12-24T00:57:44.591Z,61.88
2016-12-24T00:58:54.828Z,61.88
2016-12-24T01:00:05.737Z,61.79
2016-12-24T01:01:16.298Z,61.6
2016-12-24T01:02:26.859Z,61.69
2016-12-24T01:03:37.836Z,61.6
2016-12-24T01:04:48.406Z,61.69
2016-12-24T01:05:59.311Z,61.6
2016-12-24T01:07:10.228Z,61.79
2016-12-24T01:08:21.133Z,61.6
2016-12-24T01:09:32.082Z,61.6
2016-12-24T01:10:42.643Z,61.41
2016-12-24T01:11:53.557Z,61.6
2016-12-24T01:13:04.138Z,61.79
2016-12-24T01:14:14.707Z,61.41
2016-12-24T01:15:25.664Z,61.51
2016-12-24T01:16:36.238Z,61.6
2016-12-24T01:17:46.807Z,62.17
2016-12-24T01:18:57.412Z,62.17
2016-12-24T01:20:08.317Z,62.27
2016-12-24T01:21:18.926Z,62.37
2016-12-24T01:22:29.487Z,62.37
2016-12-24T01:23:40.393Z,61.98
2016-12-24T01:24:51.301Z,62.17
2016-12-24T01:26:02.207Z,61.98
2016-12-24T01:27:13.188Z,62.27
2016-12-24T01:28:23.409Z,62.27
2016-12-24T01:29:34.318Z,62.17
2016-12-24T01:30:44.879Z,62.17
2016-12-24T01:31:55.793Z,61.98
2016-12-24T01:33:06.749Z,62.17
2016-12-24T01:34:17.659Z,62.08
2016-12-24T01:35:28.572Z,61.98
2016-12-24T01:36:39.509Z,62.08
2016-12-24T01:37:50.420Z,61.98
2016-12-24T01:39:01.375Z,62.17
2016-12-24T01:40:11.945Z,62.17
2016-12-24T01:41:22.854Z,61.98
2016-12-24T01:42:33.799Z,62.27
2016-12-24T01:43:44.720Z,62.17
2016-12-24T01:44:55.337Z,62.37
2016-12-24T01:46:06.251Z,62.37
2016-12-24T01:47:16.815Z,62.4
2016-12-24T01:48:27.382Z,62.17
2016-12-24T01:49:38.286Z,62.27
2016-12-24T01:50:48.900Z,62.46
2016-12-24T01:51:59.492Z,62.17
2016-12-24T01:53:10.050Z,62.17
2016-12-24T01:54:20.645Z,62.08
2016-12-24T01:55:31.551Z,61.98
2016-12-24T01:56:41.821Z,61.98
2016-12-24T01:57:52.386Z,62.08
2016-12-24T01:59:02.959Z,62.08
2016-12-24T02:00:13.525Z,61.98
2016-12-24T02:01:24.097Z,62.08
2016-12-24T02:02:34.710Z,62.17
2016-12-24T02:03:45.615Z,61.98
2016-12-24T02:04:56.180Z,62.17
2016-12-24T02:06:07.085Z,61.98
2016-12-24T02:07:17.639Z,62.17
2016-12-24T02:08:28.595Z,62.17
2016-12-24T02:09:39.161Z,62.17
2016-12-24T02:10:49.733Z,62.17
2016-12-24T02:12:00.638Z,62.27
2016-12-24T02:13:11.203Z,62.17
2016-12-24T02:14:22.165Z,61.98
2016-12-24T02:15:33.078Z,62.27
2016-12-24T02:16:43.991Z,62.27
2016-12-24T02:17:54.903Z,62.08
2016-12-24T02:19:05.809Z,61.98
2016-12-24T02:20:16.770Z,62.27
2016-12-24T02:21:27.335Z,62.27
2016-12-24T02:22:38.240Z,62.74
2016-12-24T02:23:48.806Z,62.46
2016-12-24T02:24:59.715Z,62.74
2016-12-24T02:26:10.676Z,62.74
2016-12-24T02:27:21.581Z,62.74
2016-12-24T02:28:32.182Z,62.65
2016-12-24T02:29:43.091Z,62.65
2016-12-24T02:30:53.996Z,62.46
2016-12-24T02:32:04.610Z,62.65
2016-12-24T02:33:15.531Z,62.37
2016-12-24T02:34:26.148Z,62.46
2016-12-24T02:35:36.717Z,62.65
2016-12-24T02:36:47.626Z,62.37
2016-12-24T02:37:58.243Z,62.37
2016-12-24T02:39:09.176Z,62.74
2016-12-24T02:40:19.734Z,62.37
2016-12-24T02:41:30.311Z,62.37
2016-12-24T02:42:40.884Z,62.37
2016-12-24T02:43:51.502Z,62.74
2016-12-24T02:45:02.075Z,62.55
2016-12-24T02:46:12.983Z,62.65
2016-12-24T02:47:23.544Z,62.46
2016-12-24T02:48:34.449Z,62.37
2016-12-24T02:49:45.063Z,62.94
2016-12-24T02:50:55.652Z,62.65
2016-12-24T02:52:06.557Z,62.74
2016-12-24T02:53:17.462Z,62.46
2016-12-24T02:54:28.030Z,62.55
2016-12-24T02:55:38.993Z,62.46
2016-12-24T02:56:49.906Z,62.55
2016-12-24T02:58:00.471Z,62.55
2016-12-24T02:59:11.040Z,62.37
2016-12-24T03:00:21.602Z,62.65
2016-12-24T03:01:32.580Z,62.74
2016-12-24T03:02:43.148Z,62.55
2016-12-24T03:03:54.053Z,62.55
2016-12-24T03:05:04.983Z,62.84
2016-12-24T03:06:15.536Z,62.84
2016-12-24T03:07:26.493Z,62.84
2016-12-24T03:08:37.415Z,62.55
2016-12-24T03:09:48.319Z,62.37
2016-12-24T03:10:58.885Z,62.65
2016-12-24T03:12:09.798Z,62.84
2016-12-24T03:13:20.759Z,63.13
2016-12-24T03:14:31.320Z,62.84
2016-12-24T03:15:42.229Z,63.32
2016-12-24T03:16:52.798Z,62.84
2016-12-24T03:18:03.352Z,62.65
2016-12-24T03:19:13.965Z,62.84
2016-12-24T03:20:24.534Z,62.84
2016-12-24T03:21:35.103Z,62.37
2016-12-24T03:22:46.012Z,63.03
2016-12-24T03:23:56.577Z,62.94
2016-12-24T03:25:07.594Z,63.13
2016-12-24T03:26:18.528Z,62.74
2016-12-24T03:27:29.090Z,63.03
2016-12-24T03:28:39.686Z,62.74
2016-12-24T03:29:50.592Z,63.23
2016-12-24T03:31:01.297Z,63.13
2016-12-24T03:32:11.874Z,62.84
2016-12-24T03:33:22.771Z,63.23
2016-12-24T03:34:33.680Z,63.23
2016-12-24T03:35:44.589Z,63.23
2016-12-24T03:36:55.547Z,62.84
2016-12-24T03:38:06.464Z,62.94
2016-12-24T03:39:17.405Z,63.03
2016-12-24T03:40:28.314Z,62.84
2016-12-24T03:41:39.227Z,62.84
2016-12-24T03:42:50.201Z,62.94
2016-12-24T03:44:01.110Z,62.94
2016-12-24T03:45:12.011Z,63.03
2016-12-24T03:46:22.576Z,62.84
2016-12-24T03:47:33.489Z,62.84
2016-12-24T03:48:44.458Z,62.94
2016-12-24T03:49:55.356Z,62.84
2016-12-24T03:51:06.257Z,63.23
2016-12-24T03:52:16.826Z,63.23
2016-12-24T03:53:27.387Z,63.13
2016-12-24T03:54:38.352Z,63.23
2016-12-24T03:55:49.258Z,63.23
2016-12-24T03:57:00.171Z,63.13
2016-12-24T03:58:11.080Z,63.23
2016-12-24T03:59:21.981Z,63.23
2016-12-24T04:00:32.947Z,63.1
2016-12-24T04:01:43.512Z,63.23
2016-12-24T04:02:54.073Z,62.84
2016-12-24T04:04:04.666Z,62.84
2016-12-24T04:05:15.579Z,63.03
2016-12-24T04:06:26.556Z,62.84
2016-12-24T04:07:37.457Z,63.03
2016-12-24T04:08:48.367Z,62.9
2016-12-24T04:09:59.272Z,62.9
2016-12-24T04:11:10.182Z,62.84
2016-12-24T04:12:21.030Z,62.94
2016-12-24T04:13:31.936Z,63.13
2016-12-24T04:14:42.500Z,62.94
2016-12-24T04:15:53.067Z,63.13
2016-12-24T04:17:03.979Z,63.39
2016-12-24T04:18:14.933Z,63.51
2016-12-24T04:19:25.507Z,63.8
2016-12-24T04:20:36.425Z,63.8
2016-12-24T04:21:47.328Z,63.7
2016-12-24T04:22:57.921Z,63.76
2016-12-24T04:24:08.542Z,63.89
2016-12-24T04:25:19.108Z,63.6
2016-12-24T04:26:29.674Z,63.6
2016-12-24T04:27:40.589Z,63.48
2016-12-24T04:28:51.488Z,63.42
2016-12-24T04:30:02.456Z,63.42
2016-12-24T04:31:13.361Z,63.6
2016-12-24T04:32:24.271Z,63.6
2016-12-24T04:33:35.176Z,63.32
2016-12-24T04:34:45.737Z,63.57
2016-12-24T04:35:56.407Z,63.51
2016-12-24T04:37:07.315Z,63.42
2016-12-24T04:38:18.225Z,63.48
2016-12-24T04:39:29.138Z,63.42
2016-12-24T04:40:40.059Z,63.51
2016-12-24T04:41:50.677Z,63.39
2016-12-24T04:43:03.914Z,63.6
2016-12-24T04:44:14.811Z,63.42
2016-12-24T04:45:25.368Z,63.42
2016-12-24T04:46:36.277Z,63.39
2016-12-24T04:47:47.338Z,63.48
2016-12-24T04:48:57.904Z,63.51
2016-12-24T04:50:08.813Z,63.23
2016-12-24T04:51:19.726Z,63.42
2016-12-24T04:52:30.627Z,63.32
2016-12-24T04:53:41.241Z,63.42
2016-12-24T04:54:52.141Z,63.7
2016-12-24T04:56:02.703Z,63.42
2016-12-24T04:57:13.644Z,63.51
2016-12-24T04:58:24.205Z,63.19
2016-12-24T04:59:34.823Z,63.6
2016-12-24T05:00:45.728Z,63.6
2016-12-24T05:01:56.637Z,63.6
2016-12-24T05:03:07.202Z,63.57
2016-12-24T05:04:17.772Z,63.6
2016-12-24T05:05:28.380Z,64.05
2016-12-24T05:06:39.286Z,63.6
2016-12-24T05:07:50.199Z,63.67
2016-12-24T05:09:00.757Z,63.7
2016-12-24T05:10:11.666Z,63.7
2016-12-24T05:11:21.950Z,63.57
2016-12-24T05:12:32.512Z,63.6
2016-12-24T05:13:43.445Z,63.89
2016-12-24T05:14:54.003Z,64.05
2016-12-24T05:16:04.912Z,64.05
2016-12-24T05:17:15.865Z,63.99
2016-12-24T05:18:26.422Z,63.99
2016-12-24T05:19:37.333Z,64.05
2016-12-24T05:20:47.893Z,64.18
2016-12-24T05:21:58.794Z,64.18
2016-12-24T05:23:09.399Z,63.99
2016-12-24T05:24:19.964Z,63.99
2016-12-24T05:25:30.537Z,64.05
2016-12-24T05:26:41.455Z,64.09
2016-12-24T05:27:52.360Z,64.18
2016-12-24T05:29:02.965Z,64.15
2016-12-24T05:30:13.518Z,64.09
2016-12-24T05:31:24.423Z,64.28
2016-12-24T05:32:35.333Z,64.18
2016-12-24T05:33:46.242Z,64.18
2016-12-24T05:34:56.859Z,64.05
2016-12-24T05:36:07.088Z,64.09
2016-12-24T05:37:17.998Z,64.28
2016-12-24T05:38:28.918Z,64.09
2016-12-24T05:39:39.848Z,64.09
2016-12-24T05:40:50.801Z,64.09
2016-12-24T05:42:01.710Z,64.47
2016-12-24T05:43:12.271Z,64.28
2016-12-24T05:44:22.488Z,64.43
2016-12-24T05:45:32.698Z,63.99
2016-12-24T05:46:43.675Z,64.28
2016-12-24T05:47:54.588Z,64.37
2016-12-24T05:49:05.497Z,64.15
2016-12-24T05:50:16.072Z,64.28
2016-12-24T05:51:26.644Z,64.28
2016-12-24T05:52:37.601Z,64.25
2016-12-24T05:53:48.166Z,64.56
2016-12-24T05:54:58.747Z,64.56
2016-12-24T05:56:09.665Z,64.28
2016-12-24T05:57:20.218Z,64.28
2016-12-24T05:58:30.859Z,64.56
2016-12-24T05:59:41.420Z,64.37
2016-12-24T06:00:52.001Z,64.47
2016-12-24T06:02:02.235Z,64.37
2016-12-24T06:03:13.145Z,64.28
2016-12-24T06:04:23.761Z,64.56
2016-12-24T06:05:34.666Z,64.28
2016-12-24T06:06:45.583Z,64.37
2016-12-24T06:07:56.505Z,64.47
2016-12-24T06:09:07.085Z,64.28
2016-12-24T06:10:17.691Z,64.34
2016-12-24T06:11:28.252Z,64.28
2016-12-24T06:12:38.821Z,64.18
2016-12-24T06:13:49.382Z,64.47
2016-12-24T06:15:00.296Z,64.18
2016-12-24T06:16:11.253Z,64.28
2016-12-24T06:17:21.818Z,64.66
2016-12-24T06:18:32.719Z,64.37
2016-12-24T06:19:43.281Z,64.56
2016-12-24T06:20:53.502Z,64.37
2016-12-24T06:22:04.115Z,64.53
2016-12-24T06:23:14.680Z,64.56
2016-12-24T06:24:25.241Z,64.56
2016-12-24T06:25:35.806Z,64.62
2016-12-24T06:26:46.723Z,64.37
2016-12-24T06:27:57.432Z,64.56
2016-12-24T06:29:08.346Z,64.47
2016-12-24T06:30:18.915Z,64.62
2016-12-24T06:31:29.820Z,64.28
2016-12-24T06:32:40.725Z,64.47
2016-12-24T06:33:51.343Z,64.47
2016-12-24T06:35:02.252Z,64.66
2016-12-24T06:36:13.161Z,64.56
2016-12-24T06:37:24.076Z,64.47
2016-12-24T06:38:34.632Z,64.18
2016-12-24T06:39:45.589Z,64.28
2016-12-24T06:40:55.806Z,64.28
2016-12-24T06:42:06.367Z,64.37
2016-12-24T06:43:16.928Z,64.47
2016-12-24T06:44:27.497Z,64.28
2016-12-24T06:45:38.454Z,64.47
2016-12-24T06:46:49.016Z,64.56
2016-12-24T06:47:59.929Z,64.28
2016-12-24T06:49:10.842Z,64.37
2016-12-24T06:50:21.747Z,64.47
2016-12-24T06:51:32.364Z,64.47
2016-12-24T06:52:43.277Z,64.66
2016-12-24T06:53:54.183Z,64.37
2016-12-24T06:55:05.092Z,64.47
2016-12-24T06:56:15.997Z,64.95
2016-12-24T06:57:26.978Z,64.56
2016-12-24T06:58:37.888Z,64.56
2016-12-24T06:59:48.457Z,64.28
2016-12-24T07:00:59.402Z,64.28
2016-12-24T07:02:10.342Z,64.56
2016-12-24T07:03:21.040Z,64.56
2016-12-24T07:04:31.305Z,64.47
2016-12-24T07:05:42.003Z,64.47
2016-12-24T07:06:52.568Z,64.47
2016-12-24T07:08:02.793Z,64.47
2016-12-24T07:09:13.766Z,64.66
2016-12-24T07:10:24.695Z,64.66
2016-12-24T07:11:37.009Z,64.66
2016-12-24T07:12:49.138Z,64.47
2016-12-24T07:14:01.755Z,64.66
2016-12-24T07:15:12.025Z,64.66
2016-12-24T07:16:22.257Z,64.66
2016-12-24T07:17:32.146Z,64.37
2016-12-24T07:18:42.716Z,64.56
2016-12-24T07:19:53.633Z,64.56
2016-12-24T07:21:04.594Z,64.47
2016-12-24T07:22:15.503Z,64.56
2016-12-24T07:23:26.401Z,64.47
2016-12-24T07:24:36.965Z,64.66
2016-12-24T07:25:47.871Z,64.56
2016-12-24T07:26:58.488Z,64.47
2016-12-24T07:28:09.393Z,64.66
2016-12-24T07:29:19.950Z,64.56
2016-12-24T07:30:30.539Z,64.47
2016-12-24T07:31:41.452Z,64.37
2016-12-24T07:32:52.065Z,64.37
2016-12-24T07:34:02.971Z,64.37
2016-12-24T07:35:13.880Z,64.37
2016-12-24T07:36:24.517Z,64.47
2016-12-24T07:37:35.082Z,64.66
2016-12-24T07:38:46.036Z,64.66
2016-12-24T07:39:56.937Z,64.37
2016-12-24T07:41:07.186Z,64.47
2016-12-24T07:42:18.091Z,64.66
2016-12-24T07:43:28.653Z,64.28
2016-12-24T07:44:39.261Z,64.47
2016-12-24T07:45:49.831Z,64.47
2016-12-24T07:47:00.744Z,64.47
2016-12-24T07:48:11.313Z,64.47
2016-12-24T07:49:22.226Z,64.56
2016-12-24T07:50:33.191Z,64.28
2016-12-24T07:51:44.100Z,64.56
2016-12-24T07:52:55.005Z,64.28
2016-12-24T07:54:05.559Z,64.28
2016-12-24T07:55:16.492Z,64.18
2016-12-24T07:56:27.549Z,63.99
2016-12-24T07:57:38.462Z,63.89
2016-12-24T07:58:49.027Z,64.18
2016-12-24T07:59:59.937Z,64.28
2016-12-24T08:01:10.849Z,64.28
2016-12-24T08:02:21.806Z,64.18
2016-12-24T08:03:32.748Z,64.18
2016-12-24T08:04:43.313Z,63.99
2016-12-24T08:05:54.222Z,63.8
2016-12-24T08:07:05.135Z,63.99
2016-12-24T08:08:15.749Z,63.99
2016-12-24T08:09:26.666Z,63.99
2016-12-24T08:10:37.579Z,64.09
2016-12-24T08:11:48.504Z,63.89
2016-12-24T08:12:59.413Z,63.8
2016-12-24T08:14:10.474Z,63.8
2016-12-24T08:15:21.031Z,63.99
2016-12-24T08:16:31.945Z,63.99
2016-12-24T08:17:42.858Z,64.09
2016-12-24T08:18:53.763Z,63.89
2016-12-24T08:20:04.730Z,63.99
2016-12-24T08:21:15.637Z,64.18
2016-12-24T08:22:26.543Z,63.6
2016-12-24T08:23:37.107Z,63.6
2016-12-24T08:24:48.017Z,63.32
2016-12-24T08:25:58.633Z,63.32
2016-12-24T08:27:09.535Z,63.42
2016-12-24T08:28:20.100Z,63.6
2016-12-24T08:29:31.010Z,63.8
2016-12-24T08:30:41.919Z,63.7
2016-12-24T08:31:52.868Z,63.32
2016-12-24T08:33:03.437Z,63.51
2016-12-24T08:34:14.352Z,63.42
2016-12-24T08:35:24.912Z,63.7
2016-12-24T08:36:35.476Z,63.32
2016-12-24T08:37:46.097Z,63.51
2016-12-24T08:38:57.003Z,63.51
2016-12-24T08:40:07.572Z,63.51
2016-12-24T08:41:18.134Z,63.51
2016-12-24T08:42:29.038Z,63.42
2016-12-24T08:43:39.995Z,63.23
2016-12-24T08:44:50.573Z,63.73
2016-12-24T08:46:01.138Z,63.8
2016-12-24T08:47:11.699Z,63.54
2016-12-24T08:48:22.620Z,63.8
2016-12-24T08:49:33.573Z,63.7
2016-12-24T08:50:44.134Z,63.83
2016-12-24T08:51:55.043Z,63.6
2016-12-24T08:53:05.958Z,63.54
2016-12-24T08:54:16.870Z,63.64
2016-12-24T08:55:27.527Z,63.8
2016-12-24T08:56:38.440Z,63.8
2016-12-24T08:57:49.370Z,63.7
2016-12-24T08:59:00.271Z,63.23
2016-12-24T09:00:11.188Z,63.32
2016-12-24T09:01:22.141Z,63.6
2016-12-24T09:02:32.706Z,63.7
2016-12-24T09:03:43.615Z,63.89
2016-12-24T09:04:54.520Z,64.22
2016-12-24T09:06:05.434Z,64.28
2016-12-24T09:07:16.395Z,64.22
2016-12-24T09:08:27.300Z,63.99
2016-12-24T09:09:37.865Z,64.4
2016-12-24T09:10:48.437Z,64.4
2016-12-24T09:11:59.352Z,64.56
2016-12-24T09:13:10.309Z,63.8
2016-12-24T09:14:21.214Z,64.22
2016-12-24T09:15:31.783Z,64.12
2016-12-24T09:16:42.684Z,64.12
2016-12-24T09:17:53.593Z,64.4
2016-12-24T09:19:04.558Z,64.69
2016-12-24T09:20:15.152Z,64.22
2016-12-24T09:21:26.061Z,65.08
2016-12-24T09:22:37.018Z,64.59
2016-12-24T09:23:47.575Z,64.79
2016-12-24T09:24:58.196Z,65.36
2016-12-24T09:26:09.106Z,63.54
2016-12-24T09:27:20.011Z,60.19
2016-12-24T09:28:30.920Z,58.28
2016-12-24T09:29:41.477Z,58.25
2016-12-24T09:30:52.434Z,59.2
2016-12-24T09:32:03.339Z,59.97
2016-12-24T09:33:14.104Z,60.55
2016-12-24T09:34:24.662Z,60.83
2016-12-24T09:35:35.255Z,61.12
2016-12-24T09:36:46.232Z,61.22
2016-12-24T09:37:57.137Z,61.41
2016-12-24T09:39:07.751Z,61.41
2016-12-24T09:40:18.220Z,61.69
2016-12-24T09:41:29.129Z,61.6
2016-12-24T09:42:39.746Z,61.51
2016-12-24T09:43:50.656Z,61.51
2016-12-24T09:45:00.885Z,61.54
2016-12-24T09:46:11.797Z,61.44
2016-12-24T09:47:22.699Z,61.15
2016-12-24T09:48:33.312Z,61.05
2016-12-24T09:49:43.877Z,61.15
2016-12-24T09:50:54.439Z,61.25
2016-12-24T09:52:04.664Z,61.44
2016-12-24T09:53:15.225Z,60.67
2016-12-24T09:54:26.178Z,60.48
2016-12-24T09:55:36.747Z,60.86
2016-12-24T09:56:47.345Z,60.86
2016-12-24T09:57:58.254Z,61.25
2016-12-24T09:59:09.159Z,60.67
2016-12-24T10:00:20.112Z,60.67
2016-12-24T10:01:30.677Z,60.86
2016-12-24T10:02:41.578Z,60.58
2016-12-24T10:03:52.143Z,60.19
2016-12-24T10:05:03.044Z,60.48
2016-12-24T10:06:14.005Z,60.38
2016-12-24T10:07:24.911Z,60.48
2016-12-24T10:08:35.476Z,60.48
2016-12-24T10:09:46.389Z,60.67
2016-12-24T10:10:56.962Z,60.86
2016-12-24T10:12:07.584Z,60.19
2016-12-24T10:13:18.489Z,60.48
2016-12-24T10:14:29.394Z,60
2016-12-24T10:15:40.303Z,60
2016-12-24T10:16:51.209Z,60.19
2016-12-24T10:18:02.166Z,60.29
2016-12-24T10:19:13.071Z,60.38
2016-12-24T10:20:23.980Z,60.19
2016-12-24T10:21:34.909Z,60.29
2016-12-24T10:22:45.830Z,59.91
2016-12-24T10:23:56.812Z,60.1
2016-12-24T10:25:07.725Z,60
2016-12-24T10:26:18.626Z,60
2016-12-24T10:27:29.223Z,60
2016-12-24T10:28:40.128Z,60.1
2016-12-24T10:29:51.085Z,60.19
2016-12-24T10:31:01.650Z,60.1
2016-12-24T10:32:12.551Z,60
2016-12-24T10:33:23.481Z,60.1
2016-12-24T10:34:34.395Z,59.72
2016-12-24T10:35:45.339Z,59.52
2016-12-24T10:36:55.900Z,59.62
2016-12-24T10:38:06.809Z,59.52
2016-12-24T10:39:17.379Z,59.62
2016-12-24T10:40:27.972Z,59.72
2016-12-24T10:41:38.928Z,59.52
2016-12-24T10:42:49.838Z,59.81
2016-12-24T10:44:00.399Z,59.14
2016-12-24T10:45:11.309Z,60
2016-12-24T10:46:22.229Z,59.43
2016-12-24T10:47:32.546Z,59.43
2016-12-24T10:48:43.449Z,59.23
2016-12-24T10:49:54.365Z,59.43
2016-12-24T10:51:05.274Z,59.43
2016-12-24T10:52:15.831Z,59.43
2016-12-24T10:53:26.103Z,59.14
2016-12-24T10:54:36.661Z,58.98
2016-12-24T10:55:47.570Z,58.76
2016-12-24T10:56:58.128Z,58.76
2016-12-24T10:58:09.041Z,58.95
2016-12-24T10:59:19.650Z,58.86
2016-12-24T11:00:30.551Z,59.05
2016-12-24T11:01:41.460Z,59.14
2016-12-24T11:02:52.377Z,59.05
2016-12-24T11:04:03.280Z,58.86
2016-12-24T11:05:13.896Z,58.56
2016-12-24T11:06:24.801Z,58.66
2016-12-24T11:07:35.702Z,59.43
2016-12-24T11:08:46.611Z,59.43
2016-12-24T11:09:57.173Z,59.43
2016-12-24T11:11:08.134Z,59.05
2016-12-24T11:12:19.067Z,59.81
2016-12-24T11:13:29.976Z,59.84
2016-12-24T11:14:40.745Z,59.75
2016-12-24T11:15:51.054Z,59.55
2016-12-24T11:17:01.663Z,60.03
2016-12-24T11:18:12.228Z,60.13
2016-12-24T11:19:22.810Z,60.22
2016-12-24T11:20:34.147Z,59.75
2016-12-24T11:21:46.344Z,59.75
2016-12-24T11:23:00.230Z,59.94
2016-12-24T11:24:17.979Z,59.84
2016-12-24T11:25:31.932Z,59.75
2016-12-24T11:26:44.285Z,59.75
2016-12-24T11:27:57.570Z,59.45
2016-12-24T11:29:09.475Z,59.45
2016-12-24T11:30:20.397Z,59.55
2016-12-24T11:31:33.269Z,59.87
2016-12-24T11:32:45.383Z,59.48
2016-12-24T11:33:58.216Z,59.58
2016-12-24T11:35:10.125Z,59.48
2016-12-24T11:36:22.262Z,59.77
2016-12-24T11:37:34.103Z,59.77
2016-12-24T11:38:44.924Z,59.87
2016-12-24T11:39:55.305Z,59.2
2016-12-24T11:41:05.666Z,59.2
2016-12-24T11:42:15.887Z,59.48
2016-12-24T11:43:26.445Z,59.01
2016-12-24T11:44:37.353Z,58.81
2016-12-24T11:45:48.314Z,58.72
2016-12-24T11:46:59.232Z,59.11
2016-12-24T11:48:09.829Z,58.81
2016-12-24T11:49:20.065Z,58.91
2016-12-24T11:50:30.655Z,58.91
2016-12-24T11:51:41.608Z,58.81
2016-12-24T11:52:52.177Z,58.91
2016-12-24T11:54:03.074Z,58.91
2016-12-24T11:55:13.643Z,58.91
2016-12-24T11:56:24.548Z,58.81
2016-12-24T11:57:35.505Z,58.62
2016-12-24T11:58:46.410Z,58.72
2016-12-24T12:00:03.896Z,58.72
2016-12-24T12:01:24.917Z,58.44
2016-12-24T12:02:41.135Z,58.53
2016-12-24T12:03:58.100Z,58.44
2016-12-24T12:05:13.737Z,58.34
2016-12-24T12:06:32.218Z,58.53
2016-12-24T12:07:51.720Z,58.56
2016-12-24T12:09:09.997Z,58.34
2016-12-24T12:10:28.445Z,58.72
2016-12-24T12:11:48.960Z,58.62
2016-12-24T12:13:06.582Z,58.34
2016-12-24T12:14:22.678Z,58.44
2016-12-24T12:15:38.039Z,58.44
2016-12-24T12:16:54.600Z,58.34
2016-12-24T12:18:08.642Z,58.24
2016-12-24T12:19:22.223Z,58.34
2016-12-24T12:20:32.788Z,58.53
2016-12-24T12:21:43.377Z,58.53
2016-12-24T12:22:54.726Z,58.24
2016-12-24T12:24:05.695Z,58.62
2016-12-24T12:25:16.600Z,58.81
2016-12-24T12:26:27.162Z,59.01
2016-12-24T12:27:38.075Z,58.81
2016-12-24T12:28:49.028Z,58.75
2016-12-24T12:30:00.001Z,58.75
2016-12-24T12:31:10.914Z,58.65
2016-12-24T12:32:21.820Z,58.62
2016-12-24T12:33:32.389Z,58.65
2016-12-24T12:34:42.658Z,58.65
2016-12-24T12:35:53.563Z,58.75
2016-12-24T12:37:04.124Z,58.84
2016-12-24T12:38:15.049Z,58.65
2016-12-24T12:39:25.959Z,58.65
2016-12-24T12:40:36.564Z,58.65
2016-12-24T12:41:47.126Z,58.65
2016-12-24T12:42:57.690Z,58.65
2016-12-24T12:44:08.254Z,58.27
2016-12-24T12:45:18.821Z,58.46
2016-12-24T12:46:29.798Z,58.65
2016-12-24T12:47:40.015Z,58.84
2016-12-24T12:48:50.580Z,58.94
2016-12-24T12:50:01.490Z,58.94
2016-12-24T12:51:12.407Z,58.65
2016-12-24T12:52:23.368Z,58.78
2016-12-24T12:53:33.581Z,58.59
2016-12-24T12:54:44.146Z,58.17
2016-12-24T12:55:54.704Z,58.46
2016-12-24T12:57:05.613Z,58.01
2016-12-24T12:58:16.614Z,57.72
2016-12-24T12:59:27.519Z,58.01
2016-12-24T13:00:38.080Z,58.2
2016-12-24T13:01:48.985Z,57.53
2016-12-24T13:02:59.551Z,57.82
2016-12-24T13:04:09.828Z,58.11
2016-12-24T13:05:20.729Z,58.49
2016-12-24T13:06:31.642Z,58.11
2016-12-24T13:07:42.212Z,58.49
2016-12-24T13:08:53.125Z,58.49
2016-12-24T13:10:04.086Z,58.59
2016-12-24T13:11:14.991Z,58.49
2016-12-24T13:12:25.553Z,58.39
2016-12-24T13:13:36.458Z,58.49
2016-12-24T13:14:47.363Z,58.49
2016-12-24T13:15:58.329Z,58.49
2016-12-24T13:17:09.246Z,58.3
2016-12-24T13:18:19.839Z,58.3
2016-12-24T13:19:30.744Z,58.39
2016-12-24T13:20:41.641Z,58.39
2016-12-24T13:21:52.603Z,58.39
2016-12-24T13:23:03.512Z,58.39
2016-12-24T13:24:14.069Z,58.2
2016-12-24T13:25:24.974Z,58.39
2016-12-24T13:26:35.884Z,58.2
2016-12-24T13:27:46.497Z,58.42
2016-12-24T13:28:57.066Z,58.42
2016-12-24T13:30:07.988Z,58.3
2016-12-24T13:31:18.909Z,58.42
2016-12-24T13:32:29.813Z,57.92
2016-12-24T13:33:40.771Z,57.75
2016-12-24T13:34:51.340Z,57.85
2016-12-24T13:36:02.249Z,57.85
2016-12-24T13:37:13.155Z,57.75
2016-12-24T13:38:24.060Z,57.75
2016-12-24T13:39:34.673Z,57.85
2016-12-24T13:40:45.574Z,57.46
2016-12-24T13:41:56.140Z,57.18
2016-12-24T13:43:07.053Z,57.37
2016-12-24T13:44:17.962Z,57.28
2016-12-24T13:45:28.631Z,57.56
2016-12-24T13:46:39.549Z,57.65
2016-12-24T13:47:50.462Z,57.18
2016-12-24T13:49:01.035Z,57.37
2016-12-24T13:50:11.949Z,57.28
2016-12-24T13:51:22.561Z,57.08
2016-12-24T13:52:33.479Z,56.79
2016-12-24T13:53:44.384Z,56.89
2016-12-24T13:54:55.293Z,56.7
2016-12-24T13:56:06.198Z,57.18
2016-12-24T13:57:17.164Z,56.79
2016-12-24T13:58:27.727Z,57.08
2016-12-24T13:59:38.638Z,56.98
2016-12-24T14:00:49.559Z,56.89
2016-12-24T14:02:00.489Z,56.22
2016-12-24T14:03:11.446Z,56.6
2016-12-24T14:04:22.370Z,56.7
2016-12-24T14:05:33.276Z,56.6
2016-12-24T14:06:44.189Z,56.51
2016-12-24T14:07:55.105Z,56.7
2016-12-24T14:09:05.860Z,56.51
2016-12-24T14:10:16.765Z,56.6
2016-12-24T14:11:27.702Z,56.51
2016-12-24T14:12:38.636Z,55.93
2016-12-24T14:13:49.541Z,55.64
2016-12-24T14:15:00.494Z,56.12
2016-12-24T14:16:11.411Z,55.64
2016-12-24T14:17:23.716Z,56.31
2016-12-24T14:18:34.621Z,56.31
2016-12-24T14:19:45.523Z,56.22
2016-12-24T14:20:56.692Z,56.12
2016-12-24T14:22:08.129Z,56.22
2016-12-24T14:23:19.035Z,56.22
2016-12-24T14:24:30.572Z,56.12
2016-12-24T14:25:42.769Z,56.12
2016-12-24T14:26:55.532Z,55.74
2016-12-24T14:28:07.507Z,55.83
2016-12-24T14:29:18.025Z,56.22
2016-12-24T14:30:29.222Z,56.02
2016-12-24T14:31:42.124Z,56.51
2016-12-24T14:32:54.617Z,56.51
2016-12-24T14:34:07.178Z,56.6
2016-12-24T14:35:17.823Z,56.7
2016-12-24T14:36:28.408Z,56.51
2016-12-24T14:37:39.549Z,56.6
2016-12-24T14:38:50.782Z,56.89
2016-12-24T14:40:01.424Z,56.79
2016-12-24T14:41:12.601Z,56.98
2016-12-24T14:42:23.364Z,56.7
2016-12-24T14:43:34.967Z,57.08
2016-12-24T14:44:46.816Z,57.18
2016-12-24T14:45:57.638Z,57.08
2016-12-24T14:47:10.675Z,57.46
2016-12-24T14:48:22.540Z,57.46
2016-12-24T14:49:33.737Z,57.28
2016-12-24T14:50:47.931Z,57.18
2016-12-24T14:52:00.740Z,56.79
2016-12-24T14:53:12.125Z,56.89
2016-12-24T14:54:23.058Z,57.37
2016-12-24T14:55:33.948Z,57.21
2016-12-24T14:56:46.217Z,56.82
2016-12-24T14:57:57.138Z,56.98
2016-12-24T14:59:08.039Z,57.18
2016-12-24T15:00:19.045Z,57.37
2016-12-24T15:01:30.202Z,57.18
2016-12-24T15:02:42.071Z,57.37
2016-12-24T15:03:52.904Z,57.18
2016-12-24T15:05:04.410Z,57.68
2016-12-24T15:06:15.898Z,57.46
2016-12-24T15:07:26.545Z,57.28
2016-12-24T15:08:38.493Z,57.56
2016-12-24T15:09:50.278Z,57.95
2016-12-24T15:11:02.115Z,57.75
2016-12-24T15:12:13.784Z,57.65
2016-12-24T15:13:25.613Z,57.85
2016-12-24T15:14:36.735Z,57.75
2016-12-24T15:15:47.592Z,57.95
2016-12-24T15:17:00.121Z,57.97
2016-12-24T15:18:12.742Z,57.88